Time;durP1;ratioP1;P1;durP2;ratioP2;P2;SDS_P1;SDS_P2;PMS_P1;PMS_P2;Temp;Humidity;BMP_temperature;BMP_pressure;BME280_temperature;BME280_humidity;BME280_pressure;Samples;Min_cycle;Max_cycle;Signal;HPM_P1;HPM_P2
2024/01/14 00:01:36;;;;;;;8.43;5.37;;;;;;;0.18;50.17;99974.09;1745758;82;21339;-78
2024/01/14 00:04:44;;;;;;;8.28;4.67;;;;;;;0.29;50.01;99975.97;1745082;82;21359;-79
2024/01/14 00:07:50;;;;;;;10.85;4.65;;;;;;;0.18;50.32;99963.33;1746525;82;21283;-79
2024/01/14 00:10:56;;;;;;;7.95;4.75;;;;;;;0.34;50.09;99964.36;1746412;81;22416;-78
2024/01/14 00:14:02;;;;;;;7.53;4.62;;;;;;;0.44;49.73;99964.00;1746108;82;21303;-79
2024/01/14 00:17:10;;;;;;;9.25;5.05;;;;;;;0.42;49.79;99969.98;1744736;82;21292;-79
2024/01/14 00:20:18;;;;;;;10.40;4.05;;;;;;;0.45;50.02;99963.02;1745592;81;22133;-79
2024/01/14 00:23:23;;;;;;;5.65;3.70;;;;;;;0.54;49.83;99971.72;1744954;82;21331;-79
2024/01/14 00:26:29;;;;;;;6.40;3.95;;;;;;;0.58;49.94;99966.96;1746262;82;21326;-79
2024/01/14 00:29:36;;;;;;;6.80;3.90;;;;;;;0.39;50.44;99963.52;1745895;82;21296;-80
2024/01/14 00:32:42;;;;;;;6.45;3.87;;;;;;;0.36;50.59;99969.98;1745896;82;21221;-78
2024/01/14 00:35:50;;;;;;;7.75;3.70;;;;;;;0.45;50.49;99966.56;1744798;82;21195;-78
2024/01/14 00:38:55;;;;;;;10.55;4.37;;;;;;;0.53;50.52;99967.33;1744693;82;22031;-78
2024/01/14 00:42:01;;;;;;;9.90;4.35;;;;;;;0.71;50.46;99966.36;1745950;82;21321;-78
2024/01/14 00:45:08;;;;;;;7.70;3.83;;;;;;;0.83;50.19;99965.86;1745911;82;21601;-78
2024/01/14 00:48:15;;;;;;;8.78;4.75;;;;;;;0.83;50.28;99972.09;1745643;82;21311;-78
2024/01/14 00:51:22;;;;;;;10.28;4.72;;;;;;;0.70;50.37;99959.23;1744468;82;21378;-79
2024/01/14 00:54:29;;;;;;;8.75;4.12;;;;;;;0.75;50.32;99955.23;1745922;82;21315;-78
2024/01/14 00:57:34;;;;;;;8.40;4.12;;;;;;;0.78;50.29;99957.30;1746252;82;21330;-79
2024/01/14 01:00:40;;;;;;;8.75;4.37;;;;;;;0.89;49.92;99943.81;1745354;82;21363;-79
2024/01/14 01:03:46;;;;;;;9.75;4.15;;;;;;;0.59;50.51;99937.22;1746474;82;21296;-79
2024/01/14 01:06:53;;;;;;;7.08;4.00;;;;;;;1.10;49.62;99935.85;1746393;82;21303;-80
2024/01/14 01:10:00;;;;;;;8.35;4.62;;;;;;;0.96;49.79;99928.39;1745280;82;21461;-79
2024/01/14 01:13:05;;;;;;;11.18;4.95;;;;;;;1.05;49.60;99925.45;1744911;80;21351;-78
2024/01/14 01:16:12;;;;;;;6.53;4.15;;;;;;;1.17;49.55;99923.08;1746108;82;22384;-78
2024/01/14 01:19:18;;;;;;;11.88;4.62;;;;;;;1.11;50.06;99923.59;1745862;82;21859;-78
2024/01/14 01:22:23;;;;;;;7.85;4.92;;;;;;;0.99;50.39;99923.27;1744556;82;21339;-79
2024/01/14 01:25:29;;;;;;;9.10;5.00;;;;;;;0.99;50.78;99923.27;1746332;82;21288;-78
2024/01/14 01:28:36;;;;;;;8.13;4.78;;;;;;;0.94;50.93;99914.21;1745209;82;21312;-78
2024/01/14 01:31:42;;;;;;;7.80;4.00;;;;;;;0.79;51.38;99912.73;1746329;82;21303;-79
2024/01/14 01:34:52;;;;;;;14.05;4.97;;;;;;;0.86;51.48;99913.12;1746348;82;21304;-79
2024/01/14 01:38:00;;;;;;;7.03;4.17;;;;;;;0.87;51.64;99909.44;1746341;82;21866;-79
2024/01/14 01:41:05;;;;;;;10.63;4.60;;;;;;;0.97;51.70;99900.48;1744968;82;21363;-79
2024/01/14 01:44:10;;;;;;;8.88;4.78;;;;;;;1.02;51.71;99904.14;1746096;82;21315;-79
2024/01/14 01:47:16;;;;;;;7.37;4.40;;;;;;;1.01;51.89;99902.44;1745976;82;21322;-79
2024/01/14 01:50:22;;;;;;;7.75;4.60;;;;;;;1.14;51.91;99911.72;1744157;82;21315;-79
2024/01/14 01:53:27;;;;;;;7.42;4.72;;;;;;;0.96;52.43;99901.47;1745728;82;21346;-79
2024/01/14 01:56:34;;;;;;;10.70;4.65;;;;;;;0.83;52.83;99895.36;1745828;82;22576;-79
2024/01/14 01:59:40;;;;;;;6.53;4.12;;;;;;;0.97;52.89;99892.40;1745543;82;21305;-79
2024/01/14 02:02:49;;;;;;;14.03;5.60;;;;;;;1.03;53.08;99884.30;1745948;82;21224;-79
2024/01/14 02:05:55;;;;;;;13.30;5.30;;;;;;;1.04;53.21;99887.38;1746070;82;21389;-79
2024/01/14 02:09:02;;;;;;;10.03;5.10;;;;;;;0.81;53.73;99862.33;1746523;82;21306;-79
2024/01/14 02:12:08;;;;;;;7.65;5.00;;;;;;;1.03;53.53;99868.14;1745370;82;21346;-77
2024/01/14 02:15:16;;;;;;;10.93;4.90;;;;;;;0.36;55.39;99864.19;1746302;82;21315;-78
2024/01/14 02:18:23;;;;;;;7.92;5.00;;;;;;;0.30;56.29;99862.00;1746091;82;21300;-78
2024/01/14 02:21:35;;;;;;;7.95;4.53;;;;;;;0.51;56.31;99866.50;1743137;82;21350;-78
2024/01/14 02:24:40;;;;;;;12.35;4.90;;;;;;;0.65;56.08;99857.81;1769900;81;21901;-78
2024/01/14 02:27:47;;;;;;;5.85;4.22;;;;;;;0.69;56.21;99848.51;1735508;82;21890;-79
2024/01/14 02:30:52;;;;;;;9.15;4.85;;;;;;;0.64;56.55;99848.03;1733608;82;21375;-79
2024/01/14 02:33:51;;;;;;;15.03;4.92;;;;;;;0.64;56.68;99842.16;1732492;82;21335;-79
2024/01/14 02:37:00;;;;;;;8.83;4.33;;;;;;;0.47;57.70;99845.34;1732033;82;21894;-79
2024/01/14 02:40:07;;;;;;;13.05;4.55;;;;;;;0.70;57.26;99840.80;1769112;81;21307;-79
2024/01/14 02:43:13;;;;;;;15.45;4.83;;;;;;;0.92;56.79;99842.59;1768731;81;21324;-79
2024/01/14 02:46:19;;;;;;;10.90;4.67;;;;;;;0.89;56.80;99834.76;1772118;79;21952;-79
2024/01/14 02:49:24;;;;;;;6.45;4.10;;;;;;;1.01;56.57;99839.14;1800931;79;21284;-79
2024/01/14 02:52:30;;;;;;;9.08;4.20;;;;;;;0.84;56.82;99836.98;1799385;79;21339;-78
2024/01/14 02:55:36;;;;;;;10.45;4.47;;;;;;;0.97;56.99;99840.37;1801004;79;21303;-78
2024/01/14 02:58:42;;;;;;;7.15;4.60;;;;;;;0.95;57.02;99837.81;1770981;79;21300;-79
2024/01/14 03:01:52;;;;;;;8.48;4.20;;;;;;;0.77;57.75;99833.94;1768396;81;21372;-78
2024/01/14 03:04:58;;;;;;;8.58;5.40;;;;;;;0.94;57.55;99835.23;1768071;81;21353;-80
2024/01/14 03:08:04;;;;;;;6.60;4.05;;;;;;;0.81;57.59;99838.59;1768520;81;21341;-78
2024/01/14 03:11:10;;;;;;;9.45;4.80;;;;;;;0.86;57.66;99833.19;1769244;81;21352;-78
2024/01/14 03:14:16;;;;;;;8.95;4.22;;;;;;;1.34;56.58;99827.39;1769378;81;21178;-78
2024/01/14 03:17:22;;;;;;;8.98;4.67;;;;;;;1.38;55.96;99832.03;1769528;81;21331;-78
2024/01/14 03:20:29;;;;;;;11.38;4.72;;;;;;;1.18;56.58;99837.27;1769668;81;21911;-79
2024/01/14 03:23:35;;;;;;;11.43;4.72;;;;;;;1.37;56.41;99833.87;1772469;80;21335;-79
2024/01/14 03:26:41;;;;;;;11.78;4.95;;;;;;;1.56;55.47;99829.13;1781900;80;21352;-78
2024/01/14 03:29:48;;;;;;;10.13;5.28;;;;;;;1.96;54.39;99827.89;1783303;80;21312;-79
2024/01/14 03:32:54;;;;;;;11.63;4.65;;;;;;;1.79;54.45;99828.52;1782065;80;21319;-78
2024/01/14 03:36:01;;;;;;;9.63;4.53;;;;;;;1.80;54.79;99819.43;1782909;80;21303;-78
2024/01/14 03:39:03;;;;;;;8.70;4.72;;;;;;;1.90;54.57;99818.14;1783685;80;21204;-79
2024/01/14 03:42:08;;;;;;;16.17;4.95;;;;;;;1.96;54.38;99820.30;1782323;80;21371;-79
2024/01/14 03:45:17;;;;;;;8.70;4.58;;;;;;;2.07;54.31;99812.61;1782833;80;21322;-79
2024/01/14 03:48:24;;;;;;;8.95;4.28;;;;;;;2.07;54.26;99817.54;1813577;79;21287;-79
2024/01/14 03:51:29;;;;;;;7.12;3.90;;;;;;;1.93;54.75;99818.73;1813454;79;22614;-79
2024/01/14 03:54:36;;;;;;;7.78;4.72;;;;;;;1.97;54.67;99816.11;1813998;79;21334;-79
2024/01/14 03:57:41;;;;;;;12.20;4.87;;;;;;;1.94;54.80;99810.15;1815403;79;21295;-79
2024/01/14 04:00:47;;;;;;;9.40;4.37;;;;;;;2.05;54.84;99806.01;1816276;79;21307;-79
2024/01/14 04:03:53;;;;;;;8.75;4.70;;;;;;;2.20;54.36;99807.35;1815362;79;21314;-79
2024/01/14 04:07:00;;;;;;;8.55;4.00;;;;;;;2.14;54.43;99805.20;1813569;79;21326;-79
2024/01/14 04:10:07;;;;;;;12.55;5.42;;;;;;;2.32;54.34;99796.48;1813313;79;21350;-79
2024/01/14 04:13:14;;;;;;;10.15;5.42;;;;;;;2.23;54.33;99799.00;1814022;79;22541;-79
2024/01/14 04:16:19;;;;;;;8.50;4.83;;;;;;;2.11;54.68;99800.06;1809951;79;21302;-79
2024/01/14 04:19:26;;;;;;;7.70;4.58;;;;;;;1.93;55.17;99794.46;1781391;80;21308;-79
2024/01/14 04:22:34;;;;;;;17.00;5.20;;;;;;;2.13;55.07;99788.66;1782459;80;21335;-78
2024/01/14 04:25:39;;;;;;;7.72;5.00;;;;;;;2.20;54.72;99789.81;1775294;80;21328;-80
2024/01/14 04:28:45;;;;;;;7.05;4.67;;;;;;;2.17;54.88;99790.11;1778056;80;21304;-80
2024/01/14 04:31:51;;;;;;;6.95;4.28;;;;;;;2.29;54.69;99784.95;1771849;80;21862;-79
2024/01/14 04:34:57;;;;;;;11.38;4.47;;;;;;;2.17;55.21;99784.70;1759290;81;21303;-79
2024/01/14 04:38:02;;;;;;;8.30;4.53;;;;;;;2.38;54.56;99787.83;1759052;81;21334;-79
2024/01/14 04:41:07;;;;;;;8.70;5.55;;;;;;;2.54;54.19;99792.20;1758846;81;21322;-79
2024/01/14 04:44:13;;;;;;;11.30;5.62;;;;;;;2.21;54.87;99793.36;1757342;81;21330;-79
2024/01/14 04:47:18;;;;;;;8.30;4.95;;;;;;;2.00;55.60;99786.17;1759177;79;21294;-79
2024/01/14 04:50:24;;;;;;;16.23;6.53;;;;;;;1.99;55.73;99782.27;1759446;81;21337;-79
2024/01/14 04:53:30;;;;;;;15.72;6.92;;;;;;;2.06;55.91;99772.64;1757621;81;21643;-78
2024/01/14 04:56:35;;;;;;;9.28;5.58;;;;;;;1.74;56.84;99769.59;1759032;81;21302;-78
2024/01/14 04:59:40;;;;;;;13.62;6.42;;;;;;;1.81;56.94;99782.53;1758348;81;21337;-78
2024/01/14 05:02:47;;;;;;;12.10;6.37;;;;;;;1.88;56.69;99771.55;1770842;80;21350;-78
2024/01/14 05:05:53;;;;;;;11.35;6.30;;;;;;;2.04;56.37;99774.63;1776177;80;21311;-79
2024/01/14 05:08:59;;;;;;;10.80;6.00;;;;;;;2.01;56.52;99777.09;1775965;80;21717;-79
2024/01/14 05:11:58;;;;;;;14.07;6.35;;;;;;;2.05;56.42;99783.93;1786008;79;21311;-79
2024/01/14 05:15:06;;;;;;;12.07;6.30;;;;;;;2.00;56.64;99775.89;1784873;79;21308;-79
2024/01/14 05:18:11;;;;;;;14.33;6.40;;;;;;;2.34;55.87;99771.55;1783474;79;22003;-79
2024/01/14 05:21:21;;;;;;;10.20;5.53;;;;;;;2.30;55.65;99770.45;1783720;79;21304;-79
2024/01/14 05:24:28;;;;;;;10.50;5.47;;;;;;;2.37;55.67;99779.37;1794390;79;21196;-79
2024/01/14 05:27:35;;;;;;;12.28;5.72;;;;;;;2.36;55.71;99769.58;1791684;79;21185;-79
2024/01/14 05:30:40;;;;;;;10.90;6.33;;;;;;;2.14;56.27;99773.32;1786390;79;21339;-79
2024/01/14 05:33:46;;;;;;;13.88;6.17;;;;;;;2.44;55.75;99775.13;1794853;79;21767;-78
2024/01/14 05:36:53;;;;;;;14.28;6.17;;;;;;;2.25;56.25;99768.66;1782905;80;22507;-79
2024/01/14 05:39:58;;;;;;;11.70;6.35;;;;;;;2.37;56.12;99768.58;1783280;80;21893;-79
2024/01/14 05:43:04;;;;;;;15.00;6.75;;;;;;;2.48;56.06;99771.16;1783336;80;21346;-80
2024/01/14 05:46:12;;;;;;;14.68;6.53;;;;;;;2.28;56.61;99773.80;1782217;80;21334;-80
2024/01/14 05:49:21;;;;;;;11.60;6.35;;;;;;;2.49;56.06;99772.86;1783148;80;21873;-80
2024/01/14 05:52:28;;;;;;;16.27;6.67;;;;;;;2.39;56.43;99777.38;1783274;80;21323;-81
2024/01/14 05:55:33;;;;;;;10.93;5.92;;;;;;;2.55;56.15;99781.78;1783371;80;21303;-80
2024/01/14 05:58:39;;;;;;;14.13;7.35;;;;;;;2.54;56.17;99767.91;1783601;80;21303;-79
2024/01/14 06:01:45;;;;;;;10.72;6.62;;;;;;;2.46;56.37;99770.46;1790741;79;21663;-79
2024/01/14 06:04:51;;;;;;;10.58;6.75;;;;;;;2.41;56.78;99768.17;1814589;79;21850;-78
2024/01/14 06:07:58;;;;;;;14.40;8.20;;;;;;;2.64;56.32;99763.41;1815904;79;21598;-79
2024/01/14 06:11:05;;;;;;;11.40;6.60;;;;;;;2.67;56.37;99750.10;1814234;79;21307;-79
2024/01/14 06:14:10;;;;;;;13.38;7.37;;;;;;;2.53;56.48;99752.70;1815115;79;21910;-79
2024/01/14 06:17:15;;;;;;;15.65;7.17;;;;;;;2.75;56.27;99752.47;1799146;79;21334;-79
2024/01/14 06:20:21;;;;;;;12.20;7.15;;;;;;;2.79;56.22;99751.70;1782380;80;21353;-79
2024/01/14 06:23:27;;;;;;;11.08;6.67;;;;;;;2.98;55.94;99746.31;1781968;80;21228;-79
2024/01/14 06:26:33;;;;;;;9.98;6.05;;;;;;;2.94;55.75;99750.78;1776051;80;21351;-79
2024/01/14 06:29:41;;;;;;;16.30;6.95;;;;;;;2.97;55.91;99747.81;1757485;81;21903;-79
2024/01/14 06:32:48;;;;;;;13.80;6.47;;;;;;;2.95;55.84;99748.44;1763766;81;21313;-79
2024/01/14 06:35:55;;;;;;;8.85;5.42;;;;;;;3.06;55.67;99749.67;1767894;81;21333;-79
2024/01/14 06:39:02;;;;;;;12.47;6.35;;;;;;;2.62;57.04;99755.07;1768052;81;21344;-79
2024/01/14 06:42:10;;;;;;;14.63;6.60;;;;;;;2.72;56.85;99748.69;1768756;81;21938;-79
2024/01/14 06:45:18;;;;;;;14.45;7.53;;;;;;;2.86;56.66;99750.63;1768564;81;21356;-79
2024/01/14 06:48:24;;;;;;;13.13;6.90;;;;;;;2.81;56.94;99741.09;1753973;80;21299;-79
2024/01/14 06:51:31;;;;;;;12.78;7.15;;;;;;;2.72;57.61;99743.78;1769523;81;21315;-78
2024/01/14 06:54:37;;;;;;;11.83;6.28;;;;;;;2.68;57.62;99739.66;1768778;81;21220;-80
2024/01/14 06:57:42;;;;;;;10.18;7.08;;;;;;;2.78;57.55;99735.14;1782732;79;21311;-80
2024/01/14 07:00:50;;;;;;;12.82;7.25;;;;;;;2.80;57.53;99738.55;1775889;79;21859;-80
2024/01/14 07:03:56;;;;;;;13.08;6.62;;;;;;;2.76;58.02;99738.47;1753378;81;21337;-80
2024/01/14 07:07:03;;;;;;;12.58;7.72;;;;;;;2.91;57.67;99729.45;1768225;81;21860;-80
2024/01/14 07:10:09;;;;;;;12.43;7.35;;;;;;;3.11;57.19;99731.67;1792531;79;21283;-80
2024/01/14 07:13:14;;;;;;;14.65;7.70;;;;;;;3.22;57.08;99731.02;1799685;79;21307;-80
2024/01/14 07:16:19;;;;;;;13.88;7.95;;;;;;;3.37;56.95;99729.22;1777171;78;21307;-80
2024/01/14 07:19:19;;;;;;;10.48;7.40;;;;;;;3.47;56.56;99724.64;1794625;79;21850;-80
2024/01/14 07:22:26;;;;;;;10.98;7.47;;;;;;;3.61;56.29;99726.89;1786247;79;21883;-78
2024/01/14 07:25:31;;;;;;;12.28;7.67;;;;;;;3.57;56.30;99719.56;1773393;79;21592;-78
2024/01/14 07:28:37;;;;;;;14.23;7.55;;;;;;;3.49;56.46;99714.55;1780977;79;21319;-79
2024/01/14 07:31:43;;;;;;;12.93;7.53;;;;;;;3.30;56.74;99710.03;1785669;79;21307;-79
2024/01/14 07:34:49;;;;;;;18.57;9.98;;;;;;;3.31;56.90;99709.88;1776671;79;21303;-79
2024/01/14 07:37:55;;;;;;;16.93;8.08;;;;;;;3.43;56.64;99712.41;1772436;79;21311;-79
2024/01/14 07:41:00;;;;;;;17.30;7.22;;;;;;;3.60;56.25;99714.38;1744944;81;21362;-78
2024/01/14 07:44:06;;;;;;;18.30;8.18;;;;;;;3.79;55.85;99718.37;1741599;81;21366;-79
2024/01/14 07:47:12;;;;;;;15.28;8.58;;;;;;;3.77;55.47;99709.56;1714111;83;21957;-78
2024/01/14 07:50:18;;;;;;;12.63;7.78;;;;;;;3.74;55.95;99711.70;1722777;82;22624;-78
2024/01/14 07:53:25;;;;;;;16.10;8.25;;;;;;;3.56;56.50;99704.84;1727332;82;21303;-78
2024/01/14 07:56:25;;;;;;;13.40;7.45;;;;;;;3.97;55.65;99705.43;1727707;82;21359;-80
2024/01/14 07:59:24;;;;;;;15.35;8.28;;;;;;;4.12;55.21;99704.44;1711123;82;21307;-79
2024/01/14 08:02:07;;;;;;;12.33;8.05;;;;;;;4.20;54.78;99704.55;1715417;82;21911;-79
2024/01/14 08:05:01;;;;;;;15.13;8.80;;;;;;;4.09;55.03;99703.75;1725983;82;21524;-78
2024/01/14 08:07:47;;;;;;;12.50;7.60;;;;;;;4.18;54.79;99701.97;1709945;84;21308;-78
2024/01/14 08:10:41;;;;;;;15.72;9.30;;;;;;;3.97;55.29;99694.61;1721819;82;21679;-78
2024/01/14 08:13:28;;;;;;;14.50;9.08;;;;;;;4.15;55.02;99698.23;1710019;84;21985;-78
2024/01/14 08:16:21;;;;;;;18.00;10.40;;;;;;;4.24;54.86;99698.68;1716684;82;21934;-78
2024/01/14 08:19:28;;;;;;;14.10;7.90;;;;;;;4.23;55.16;99694.25;1710599;82;21398;-78
2024/01/14 08:22:35;;;;;;;15.08;8.93;;;;;;;4.50;54.97;99692.53;1726251;82;21951;-78
2024/01/14 08:25:41;;;;;;;13.45;8.80;;;;;;;4.71;54.36;99702.59;1713850;82;22049;-77
2024/01/14 08:28:47;;;;;;;14.73;8.98;;;;;;;4.87;53.87;99689.70;1722596;83;22652;-77
2024/01/14 08:31:52;;;;;;;16.05;9.48;;;;;;;5.03;53.06;99693.05;1713953;82;21293;-76
2024/01/14 08:34:59;;;;;;;13.28;8.65;;;;;;;5.06;52.84;99685.98;1725480;82;21301;-76
2024/01/14 08:38:06;;;;;;;16.50;9.23;;;;;;;4.93;53.15;99678.23;1719900;83;21890;-77
2024/01/14 08:41:12;;;;;;;15.15;9.20;;;;;;;4.96;53.19;99670.30;1719359;83;21336;-78
2024/01/14 08:44:06;;;;;;;15.40;10.05;;;;;;;4.78;53.59;99669.80;1718984;82;21323;-79
2024/01/14 08:47:12;;;;;;;13.70;9.20;;;;;;;4.83;53.39;99664.77;1716730;82;21339;-77
2024/01/14 08:50:20;;;;;;;15.40;9.83;;;;;;;4.97;53.26;99653.88;1733599;82;21367;-78
2024/01/14 08:53:26;;;;;;;13.88;8.90;;;;;;;5.06;53.07;99650.23;1706218;82;21332;-78
2024/01/14 08:56:33;;;;;;;16.60;10.75;;;;;;;5.15;52.77;99641.66;1714197;82;21311;-78
2024/01/14 08:59:38;;;;;;;17.77;10.38;;;;;;;5.24;52.69;99642.07;1733223;82;21347;-78
2024/01/14 09:02:46;;;;;;;20.00;11.45;;;;;;;5.47;52.41;99644.27;1712890;82;21318;-77
2024/01/14 09:05:53;;;;;;;18.82;10.75;;;;;;;5.44;52.42;99634.57;1705337;84;21173;-78
2024/01/14 09:09:00;;;;;;;20.50;11.08;;;;;;;5.34;52.71;99638.75;1736407;82;21319;-77
2024/01/14 09:11:52;;;;;;;15.15;9.08;;;;;;;5.41;52.73;99637.63;1708387;82;22613;-78
2024/01/14 09:14:59;;;;;;;;;;;;;;;5.59;52.58;99632.11;1720788;82;21289;-79
2024/01/14 09:18:05;;;;;;;21.05;11.08;;;;;;;5.88;52.53;99636.70;1714095;82;20288;-79
2024/01/14 09:21:10;;;;;;;17.73;11.38;;;;;;;5.93;52.87;99630.81;1718754;82;21292;-78
2024/01/14 09:24:17;;;;;;;18.65;11.63;;;;;;;6.06;52.07;99624.91;1707399;82;21291;-79
2024/01/14 09:27:24;;;;;;;18.73;10.98;;;;;;;6.10;51.49;99620.34;1703591;82;21355;-78
2024/01/14 09:30:31;;;;;;;16.50;10.08;;;;;;;5.80;51.71;99624.95;1731415;82;21355;-78
2024/01/14 09:33:38;;;;;;;19.27;11.38;;;;;;;5.70;52.06;99619.64;1733391;82;21340;-78
2024/01/14 09:36:44;;;;;;;17.32;11.05;;;;;;;5.99;51.81;99625.23;1733541;82;21319;-79
2024/01/14 09:39:50;;;;;;;16.65;10.25;;;;;;;5.95;52.19;99609.77;1704383;84;21363;-79
2024/01/14 09:42:57;;;;;;;18.85;10.60;;;;;;;6.15;52.05;99604.91;1703990;84;21893;-78
2024/01/14 09:46:03;;;;;;;21.80;12.25;;;;;;;6.30;51.47;99598.33;1705014;82;21311;-78
2024/01/14 09:49:10;;;;;;;19.40;11.35;;;;;;;6.15;51.32;99591.34;1703019;84;21339;-78
2024/01/14 09:52:18;;;;;;;19.10;11.95;;;;;;;6.30;50.96;99591.54;1737310;81;21898;-78
